Saltar al contingut principal

Dades de l'estació automàtica Port de Barcelona - Bocana Sud

Selector estació i data
?
?

Resum diari

22:00 TU
Dades diàries de l'estació meteorològica
Ratxa màxima del vent (10 m) 32.4 km/h - 222º 18:33 TU

El tram horari està expressat en Temps Universal (TU). Cal sumar una hora en horari d'hivern i dues en horari d'estiu per passar a l'hora oficial.

Port de Barcelona - Bocana Sud

Metadades estació meteorològica
Municipi El Prat de Llobregat
Comarca Baix Llobregat
Altitud 3 m
Data alta 08.04.2015
Estat actual Operativa
Dades de període
Període
TU
VVM (10 m)
km/h
DVM (10 m)
graus
VVX (10 m)
km/h
00:00 - 00:30 9.4 300 14.0
00:30 - 01:00 8.6 299 11.2
01:00 - 01:30 7.6 284 9.7
01:30 - 02:00 6.1 291 9.0
02:00 - 02:30 5.4 279 7.9
02:30 - 03:00 6.5 292 9.0
03:00 - 03:30 5.0 271 7.2
03:30 - 04:00 7.9 273 10.8
04:00 - 04:30 7.2 291 9.4
04:30 - 05:00 7.9 292 11.5
05:00 - 05:30 8.6 297 15.5
05:30 - 06:00 9.0 305 14.4
06:00 - 06:30 9.0 294 13.3
06:30 - 07:00 10.8 277 15.1
07:00 - 07:30 14.0 311 22.3
07:30 - 08:00 7.9 296 13.3
08:00 - 08:30 5.0 270 9.4
08:30 - 09:00 4.7 176 10.1
09:00 - 09:30 8.6 174 17.3
09:30 - 10:00 14.8 195 21.2
10:00 - 10:30 14.8 195 16.9
10:30 - 11:00 15.8 188 18.7
11:00 - 11:30 17.6 188 20.5
11:30 - 12:00 19.4 201 23.8
12:00 - 12:30 19.4 207 23.4
12:30 - 13:00 19.8 199 22.7
13:00 - 13:30 20.5 195 24.1
13:30 - 14:00 20.2 199 24.8
14:00 - 14:30 21.6 200 25.2
14:30 - 15:00 22.7 201 27.4
15:00 - 15:30 24.1 203 28.1
15:30 - 16:00 25.6 205 31.3
16:00 - 16:30 25.2 216 29.9
16:30 - 17:00 25.9 220 31.0
17:00 - 17:30 25.6 220 31.3
17:30 - 18:00 25.2 224 29.9
18:00 - 18:30 24.8 230 31.7
18:30 - 19:00 23.4 234 32.4
19:00 - 19:30 20.5 236 29.5
19:30 - 20:00 20.2 237 27.0
20:00 - 20:30 19.1 241 27.0
20:30 - 21:00 17.3 243 24.5
21:00 - 21:30 15.8 239 23.0
21:30 - 22:00 16.2 241 22.7
22:00 - 22:30 16.2 242 22.3
22:30 - 23:00 15.8 239 23.8

Les dades en taronja només han passat un control de qualitat automàtic. Resta pendent la seva validació definitiva.